sensor_id;sensor_type;location;lat;lon;timestamp;P1;durP1;ratioP1;P2;durP2;ratioP2
30420;SDS011;17218;54.070;10.012;2023-04-08T00:02:06;12.33;;;8.97;;
30420;SDS011;17218;54.070;10.012;2023-04-08T00:04:32;11.02;;;8.18;;
30420;SDS011;17218;54.070;10.012;2023-04-08T00:06:59;10.52;;;8.20;;
30420;SDS011;17218;54.070;10.012;2023-04-08T00:09:25;11.23;;;8.70;;
30420;SDS011;17218;54.070;10.012;2023-04-08T00:11:53;12.45;;;8.18;;
30420;SDS011;17218;54.070;10.012;2023-04-08T00:14:21;10.40;;;8.27;;
30420;SDS011;17218;54.070;10.012;2023-04-08T00:16:47;11.23;;;7.87;;
30420;SDS011;17218;54.070;10.012;2023-04-08T00:19:14;14.27;;;9.10;;
30420;SDS011;17218;54.070;10.012;2023-04-08T00:21:40;14.43;;;8.50;;
30420;SDS011;17218;54.070;10.012;2023-04-08T00:24:07;11.87;;;8.93;;
30420;SDS011;17218;54.070;10.012;2023-04-08T00:26:34;10.85;;;8.10;;
30420;SDS011;17218;54.070;10.012;2023-04-08T00:29:03;11.70;;;8.55;;
30420;SDS011;17218;54.070;10.012;2023-04-08T00:31:29;11.67;;;8.77;;
30420;SDS011;17218;54.070;10.012;2023-04-08T00:33:56;11.50;;;8.47;;
30420;SDS011;17218;54.070;10.012;2023-04-08T00:36:23;11.67;;;8.07;;
30420;SDS011;17218;54.070;10.012;2023-04-08T00:38:51;12.37;;;8.53;;
30420;SDS011;17218;54.070;10.012;2023-04-08T00:41:18;10.35;;;8.27;;
30420;SDS011;17218;54.070;10.012;2023-04-08T00:43:44;12.05;;;8.98;;
30420;SDS011;17218;54.070;10.012;2023-04-08T00:46:12;13.03;;;8.23;;
30420;SDS011;17218;54.070;10.012;2023-04-08T00:48:39;11.70;;;9.27;;
30420;SDS011;17218;54.070;10.012;2023-04-08T00:51:05;13.65;;;9.35;;
30420;SDS011;17218;54.070;10.012;2023-04-08T00:53:33;13.77;;;9.43;;
30420;SDS011;17218;54.070;10.012;2023-04-08T00:55:59;12.13;;;8.63;;
30420;SDS011;17218;54.070;10.012;2023-04-08T00:58:26;11.43;;;8.38;;
30420;SDS011;17218;54.070;10.012;2023-04-08T01:00:56;12.63;;;8.80;;
30420;SDS011;17218;54.070;10.012;2023-04-08T01:03:29;13.98;;;9.02;;
30420;SDS011;17218;54.070;10.012;2023-04-08T01:06:08;10.30;;;9.05;;
30420;SDS011;17218;54.070;10.012;2023-04-08T01:08:39;12.63;;;9.27;;
30420;SDS011;17218;54.070;10.012;2023-04-08T01:11:09;10.67;;;8.93;;
30420;SDS011;17218;54.070;10.012;2023-04-08T01:13:38;12.13;;;8.83;;
30420;SDS011;17218;54.070;10.012;2023-04-08T01:16:07;12.13;;;9.47;;
30420;SDS011;17218;54.070;10.012;2023-04-08T01:18:37;14.87;;;9.97;;
30420;SDS011;17218;54.070;10.012;2023-04-08T01:21:04;12.00;;;9.27;;
30420;SDS011;17218;54.070;10.012;2023-04-08T01:23:33;12.57;;;9.87;;
30420;SDS011;17218;54.070;10.012;2023-04-08T01:26:07;12.57;;;9.73;;
30420;SDS011;17218;54.070;10.012;2023-04-08T01:28:35;11.73;;;8.95;;
30420;SDS011;17218;54.070;10.012;2023-04-08T01:31:04;14.00;;;9.03;;
30420;SDS011;17218;54.070;10.012;2023-04-08T01:33:32;12.80;;;8.90;;
30420;SDS011;17218;54.070;10.012;2023-04-08T01:36:00;11.60;;;9.03;;
30420;SDS011;17218;54.070;10.012;2023-04-08T01:38:29;12.18;;;9.80;;
30420;SDS011;17218;54.070;10.012;2023-04-08T01:40:58;13.20;;;9.20;;
30420;SDS011;17218;54.070;10.012;2023-04-08T01:43:26;13.70;;;10.45;;
30420;SDS011;17218;54.070;10.012;2023-04-08T01:45:56;12.38;;;8.98;;
30420;SDS011;17218;54.070;10.012;2023-04-08T01:48:24;10.35;;;8.27;;
30420;SDS011;17218;54.070;10.012;2023-04-08T01:50:51;11.27;;;9.70;;
30420;SDS011;17218;54.070;10.012;2023-04-08T01:53:18;12.73;;;9.45;;
30420;SDS011;17218;54.070;10.012;2023-04-08T01:55:45;12.57;;;9.40;;
30420;SDS011;17218;54.070;10.012;2023-04-08T01:58:15;11.63;;;9.50;;
30420;SDS011;17218;54.070;10.012;2023-04-08T02:00:46;12.95;;;8.43;;
30420;SDS011;17218;54.070;10.012;2023-04-08T02:03:13;12.53;;;9.77;;
30420;SDS011;17218;54.070;10.012;2023-04-08T02:05:43;11.40;;;8.63;;
30420;SDS011;17218;54.070;10.012;2023-04-08T02:08:10;12.43;;;8.60;;
30420;SDS011;17218;54.070;10.012;2023-04-08T02:10:37;11.18;;;9.18;;
30420;SDS011;17218;54.070;10.012;2023-04-08T02:13:03;12.75;;;8.73;;
30420;SDS011;17218;54.070;10.012;2023-04-08T02:15:31;11.82;;;9.07;;
30420;SDS011;17218;54.070;10.012;2023-04-08T02:18:04;13.82;;;8.98;;
30420;SDS011;17218;54.070;10.012;2023-04-08T02:20:37;11.10;;;8.88;;
30420;SDS011;17218;54.070;10.012;2023-04-08T02:23:09;11.30;;;9.23;;
30420;SDS011;17218;54.070;10.012;2023-04-08T02:25:39;11.50;;;9.13;;
30420;SDS011;17218;54.070;10.012;2023-04-08T02:28:10;15.13;;;10.53;;
30420;SDS011;17218;54.070;10.012;2023-04-08T02:30:39;15.73;;;10.47;;
30420;SDS011;17218;54.070;10.012;2023-04-08T02:33:09;12.83;;;10.20;;
30420;SDS011;17218;54.070;10.012;2023-04-08T02:35:38;16.27;;;11.43;;
30420;SDS011;17218;54.070;10.012;2023-04-08T02:38:06;13.82;;;10.75;;
30420;SDS011;17218;54.070;10.012;2023-04-08T02:40:34;17.23;;;11.23;;
30420;SDS011;17218;54.070;10.012;2023-04-08T02:43:01;15.18;;;10.32;;
30420;SDS011;17218;54.070;10.012;2023-04-08T02:45:29;16.02;;;11.50;;
30420;SDS011;17218;54.070;10.012;2023-04-08T02:47:57;14.50;;;10.70;;
30420;SDS011;17218;54.070;10.012;2023-04-08T02:50:26;13.50;;;10.70;;
30420;SDS011;17218;54.070;10.012;2023-04-08T02:52:54;15.10;;;10.60;;
30420;SDS011;17218;54.070;10.012;2023-04-08T02:55:20;15.50;;;11.20;;
30420;SDS011;17218;54.070;10.012;2023-04-08T02:57:47;14.90;;;10.83;;
30420;SDS011;17218;54.070;10.012;2023-04-08T03:00:15;13.65;;;10.57;;
30420;SDS011;17218;54.070;10.012;2023-04-08T03:08:56;15.83;;;10.77;;
30420;SDS011;17218;54.070;10.012;2023-04-08T03:11:22;14.05;;;10.00;;
30420;SDS011;17218;54.070;10.012;2023-04-08T03:13:49;13.30;;;10.30;;
30420;SDS011;17218;54.070;10.012;2023-04-08T03:16:15;15.93;;;11.73;;
30420;SDS011;17218;54.070;10.012;2023-04-08T03:18:42;16.30;;;10.70;;
30420;SDS011;17218;54.070;10.012;2023-04-08T03:21:08;14.83;;;10.73;;
30420;SDS011;17218;54.070;10.012;2023-04-08T03:23:36;14.87;;;10.50;;
30420;SDS011;17218;54.070;10.012;2023-04-08T03:26:02;14.67;;;10.97;;
30420;SDS011;17218;54.070;10.012;2023-04-08T03:28:29;14.50;;;10.53;;
30420;SDS011;17218;54.070;10.012;2023-04-08T03:30:55;16.37;;;10.33;;
30420;SDS011;17218;54.070;10.012;2023-04-08T03:33:22;14.37;;;10.90;;
30420;SDS011;17218;54.070;10.012;2023-04-08T03:35:48;13.93;;;10.60;;
30420;SDS011;17218;54.070;10.012;2023-04-08T03:38:15;16.33;;;11.87;;
30420;SDS011;17218;54.070;10.012;2023-04-08T03:40:43;17.80;;;11.73;;
30420;SDS011;17218;54.070;10.012;2023-04-08T03:43:09;16.40;;;11.73;;
30420;SDS011;17218;54.070;10.012;2023-04-08T03:45:36;17.37;;;11.57;;
30420;SDS011;17218;54.070;10.012;2023-04-08T03:48:03;18.80;;;13.60;;
30420;SDS011;17218;54.070;10.012;2023-04-08T03:50:30;21.67;;;13.20;;
30420;SDS011;17218;54.070;10.012;2023-04-08T03:52:57;17.70;;;13.27;;
30420;SDS011;17218;54.070;10.012;2023-04-08T03:55:23;21.10;;;14.03;;
30420;SDS011;17218;54.070;10.012;2023-04-08T03:57:51;19.20;;;12.83;;
30420;SDS011;17218;54.070;10.012;2023-04-08T04:07:01;24.07;;;14.67;;
30420;SDS011;17218;54.070;10.012;2023-04-08T04:09:27;21.97;;;15.07;;
30420;SDS011;17218;54.070;10.012;2023-04-08T04:11:54;25.07;;;15.67;;
30420;SDS011;17218;54.070;10.012;2023-04-08T04:14:22;20.10;;;15.03;;
30420;SDS011;17218;54.070;10.012;2023-04-08T04:16:48;28.00;;;17.80;;
30420;SDS011;17218;54.070;10.012;2023-04-08T04:19:15;23.13;;;16.10;;
30420;SDS011;17218;54.070;10.012;2023-04-08T04:21:42;22.70;;;16.37;;
30420;SDS011;17218;54.070;10.012;2023-04-08T04:24:08;25.70;;;17.07;;
30420;SDS011;17218;54.070;10.012;2023-04-08T04:26:35;24.73;;;15.67;;
30420;SDS011;17218;54.070;10.012;2023-04-08T04:29:01;24.47;;;16.13;;
30420;SDS011;17218;54.070;10.012;2023-04-08T04:31:29;21.37;;;15.67;;
30420;SDS011;17218;54.070;10.012;2023-04-08T04:33:56;20.63;;;15.10;;
30420;SDS011;17218;54.070;10.012;2023-04-08T04:36:22;20.10;;;15.17;;
30420;SDS011;17218;54.070;10.012;2023-04-08T04:38:49;22.20;;;15.87;;
30420;SDS011;17218;54.070;10.012;2023-04-08T04:41:15;21.20;;;14.87;;
30420;SDS011;17218;54.070;10.012;2023-04-08T04:43:42;25.73;;;16.23;;
30420;SDS011;17218;54.070;10.012;2023-04-08T04:46:09;22.43;;;14.50;;
30420;SDS011;17218;54.070;10.012;2023-04-08T04:48:36;23.60;;;15.10;;
30420;SDS011;17218;54.070;10.012;2023-04-08T04:51:03;20.23;;;13.77;;
30420;SDS011;17218;54.070;10.012;2023-04-08T04:53:31;18.60;;;12.90;;
30420;SDS011;17218;54.070;10.012;2023-04-08T04:55:58;21.92;;;13.48;;
30420;SDS011;17218;54.070;10.012;2023-04-08T04:58:25;18.80;;;13.50;;
30420;SDS011;17218;54.070;10.012;2023-04-08T05:00:52;19.70;;;14.10;;
30420;SDS011;17218;54.070;10.012;2023-04-08T05:03:18;23.47;;;13.73;;
30420;SDS011;17218;54.070;10.012;2023-04-08T05:05:50;20.67;;;14.13;;
30420;SDS011;17218;54.070;10.012;2023-04-08T05:08:17;19.37;;;13.00;;
30420;SDS011;17218;54.070;10.012;2023-04-08T05:10:44;19.23;;;13.70;;
30420;SDS011;17218;54.070;10.012;2023-04-08T05:13:10;18.73;;;13.53;;
30420;SDS011;17218;54.070;10.012;2023-04-08T05:15:37;18.60;;;13.73;;
30420;SDS011;17218;54.070;10.012;2023-04-08T05:18:03;20.73;;;14.03;;
30420;SDS011;17218;54.070;10.012;2023-04-08T05:20:30;19.30;;;13.43;;
30420;SDS011;17218;54.070;10.012;2023-04-08T05:22:57;22.43;;;14.30;;
30420;SDS011;17218;54.070;10.012;2023-04-08T05:25:24;22.17;;;13.80;;
30420;SDS011;17218;54.070;10.012;2023-04-08T05:27:50;22.87;;;14.87;;
30420;SDS011;17218;54.070;10.012;2023-04-08T05:30:17;22.20;;;14.80;;
30420;SDS011;17218;54.070;10.012;2023-04-08T05:32:44;22.97;;;14.70;;
30420;SDS011;17218;54.070;10.012;2023-04-08T05:35:11;22.33;;;14.57;;
30420;SDS011;17218;54.070;10.012;2023-04-08T05:37:37;24.23;;;15.00;;
30420;SDS011;17218;54.070;10.012;2023-04-08T05:40:07;24.30;;;15.00;;
30420;SDS011;17218;54.070;10.012;2023-04-08T05:42:34;20.27;;;13.77;;
30420;SDS011;17218;54.070;10.012;2023-04-08T05:45:00;23.13;;;14.30;;
30420;SDS011;17218;54.070;10.012;2023-04-08T05:47:27;18.87;;;13.27;;
30420;SDS011;17218;54.070;10.012;2023-04-08T05:49:53;20.83;;;13.80;;
30420;SDS011;17218;54.070;10.012;2023-04-08T05:52:20;20.40;;;14.20;;
30420;SDS011;17218;54.070;10.012;2023-04-08T05:54:46;18.07;;;12.80;;
30420;SDS011;17218;54.070;10.012;2023-04-08T05:57:14;19.80;;;12.87;;
30420;SDS011;17218;54.070;10.012;2023-04-08T05:59:41;19.70;;;12.33;;
30420;SDS011;17218;54.070;10.012;2023-04-08T06:02:08;19.93;;;13.90;;
30420;SDS011;17218;54.070;10.012;2023-04-08T06:04:34;19.50;;;13.10;;
30420;SDS011;17218;54.070;10.012;2023-04-08T06:07:01;18.67;;;13.37;;
30420;SDS011;17218;54.070;10.012;2023-04-08T06:09:28;27.43;;;14.17;;
30420;SDS011;17218;54.070;10.012;2023-04-08T06:11:55;20.33;;;14.30;;
30420;SDS011;17218;54.070;10.012;2023-04-08T06:14:23;21.67;;;13.33;;
30420;SDS011;17218;54.070;10.012;2023-04-08T06:16:49;22.20;;;13.90;;
30420;SDS011;17218;54.070;10.012;2023-04-08T06:19:17;19.40;;;13.30;;
30420;SDS011;17218;54.070;10.012;2023-04-08T06:21:43;20.90;;;13.60;;
30420;SDS011;17218;54.070;10.012;2023-04-08T06:24:10;20.27;;;13.00;;
30420;SDS011;17218;54.070;10.012;2023-04-08T06:26:36;18.60;;;12.53;;
30420;SDS011;17218;54.070;10.012;2023-04-08T06:29:02;16.67;;;12.23;;
30420;SDS011;17218;54.070;10.012;2023-04-08T06:33:58;17.70;;;12.00;;
30420;SDS011;17218;54.070;10.012;2023-04-08T06:36:24;16.67;;;11.97;;
30420;SDS011;17218;54.070;10.012;2023-04-08T06:38:52;16.47;;;12.00;;
30420;SDS011;17218;54.070;10.012;2023-04-08T06:41:19;19.53;;;13.03;;
30420;SDS011;17218;54.070;10.012;2023-04-08T06:43:45;21.33;;;13.17;;
30420;SDS011;17218;54.070;10.012;2023-04-08T06:46:11;18.83;;;12.93;;
30420;SDS011;17218;54.070;10.012;2023-04-08T06:48:39;17.93;;;12.57;;
30420;SDS011;17218;54.070;10.012;2023-04-08T06:51:06;18.30;;;12.23;;
30420;SDS011;17218;54.070;10.012;2023-04-08T06:53:32;16.77;;;12.30;;
30420;SDS011;17218;54.070;10.012;2023-04-08T06:55:59;19.87;;;13.03;;
30420;SDS011;17218;54.070;10.012;2023-04-08T06:58:25;18.30;;;13.07;;
30420;SDS011;17218;54.070;10.012;2023-04-08T07:00:52;22.57;;;13.67;;
30420;SDS011;17218;54.070;10.012;2023-04-08T07:03:19;21.03;;;13.57;;
30420;SDS011;17218;54.070;10.012;2023-04-08T07:05:47;20.60;;;13.40;;
30420;SDS011;17218;54.070;10.012;2023-04-08T07:08:14;18.57;;;12.60;;
30420;SDS011;17218;54.070;10.012;2023-04-08T07:10:40;17.13;;;12.37;;
30420;SDS011;17218;54.070;10.012;2023-04-08T07:13:07;15.10;;;11.63;;
30420;SDS011;17218;54.070;10.012;2023-04-08T07:15:34;15.60;;;11.67;;
30420;SDS011;17218;54.070;10.012;2023-04-08T07:18:01;20.17;;;12.30;;
30420;SDS011;17218;54.070;10.012;2023-04-08T07:20:28;19.00;;;12.30;;
30420;SDS011;17218;54.070;10.012;2023-04-08T07:22:56;18.27;;;13.30;;
30420;SDS011;17218;54.070;10.012;2023-04-08T07:25:23;18.37;;;12.77;;
30420;SDS011;17218;54.070;10.012;2023-04-08T07:27:49;16.97;;;12.00;;
30420;SDS011;17218;54.070;10.012;2023-04-08T07:30:16;15.90;;;11.93;;
30420;SDS011;17218;54.070;10.012;2023-04-08T07:32:43;17.17;;;12.10;;
30420;SDS011;17218;54.070;10.012;2023-04-08T07:35:10;16.70;;;11.63;;
30420;SDS011;17218;54.070;10.012;2023-04-08T07:37:36;15.70;;;11.38;;
30420;SDS011;17218;54.070;10.012;2023-04-08T07:40:05;14.90;;;11.25;;
30420;SDS011;17218;54.070;10.012;2023-04-08T07:42:32;17.73;;;12.38;;
30420;SDS011;17218;54.070;10.012;2023-04-08T07:44:59;16.42;;;11.88;;
30420;SDS011;17218;54.070;10.012;2023-04-08T07:47:25;17.17;;;12.63;;
30420;SDS011;17218;54.070;10.012;2023-04-08T07:49:52;18.73;;;13.43;;
30420;SDS011;17218;54.070;10.012;2023-04-08T07:52:19;18.23;;;12.70;;
30420;SDS011;17218;54.070;10.012;2023-04-08T07:54:45;18.53;;;12.33;;
30420;SDS011;17218;54.070;10.012;2023-04-08T07:57:13;18.98;;;12.43;;
30420;SDS011;17218;54.070;10.012;2023-04-08T07:59:40;18.40;;;13.38;;
30420;SDS011;17218;54.070;10.012;2023-04-08T08:02:06;19.27;;;11.10;;
30420;SDS011;17218;54.070;10.012;2023-04-08T08:04:33;12.90;;;10.68;;
30420;SDS011;17218;54.070;10.012;2023-04-08T08:06:59;17.70;;;11.60;;
30420;SDS011;17218;54.070;10.012;2023-04-08T08:09:26;16.73;;;10.60;;
30420;SDS011;17218;54.070;10.012;2023-04-08T08:11:52;19.27;;;11.45;;
30420;SDS011;17218;54.070;10.012;2023-04-08T08:14:20;14.85;;;10.98;;
30420;SDS011;17218;54.070;10.012;2023-04-08T08:16:47;13.40;;;10.03;;
30420;SDS011;17218;54.070;10.012;2023-04-08T08:19:13;14.97;;;11.90;;
30420;SDS011;17218;54.070;10.012;2023-04-08T08:21:40;15.65;;;10.95;;
30420;SDS011;17218;54.070;10.012;2023-04-08T08:24:06;17.73;;;13.10;;
30420;SDS011;17218;54.070;10.012;2023-04-08T08:26:33;18.02;;;11.93;;
30420;SDS011;17218;54.070;10.012;2023-04-08T08:29:01;16.65;;;11.88;;
30420;SDS011;17218;54.070;10.012;2023-04-08T08:34:53;15.77;;;11.38;;
30420;SDS011;17218;54.070;10.012;2023-04-08T08:37:19;13.85;;;11.05;;
30420;SDS011;17218;54.070;10.012;2023-04-08T08:39:46;14.38;;;10.85;;
30420;SDS011;17218;54.070;10.012;2023-04-08T08:42:19;10.60;;;8.68;;
30420;SDS011;17218;54.070;10.012;2023-04-08T08:44:47;11.85;;;9.13;;
30420;SDS011;17218;54.070;10.012;2023-04-08T08:47:14;11.60;;;8.68;;
30420;SDS011;17218;54.070;10.012;2023-04-08T08:49:41;13.48;;;8.68;;
30420;SDS011;17218;54.070;10.012;2023-04-08T08:52:09;8.65;;;7.53;;
30420;SDS011;17218;54.070;10.012;2023-04-08T08:54:35;11.30;;;7.30;;
30420;SDS011;17218;54.070;10.012;2023-04-08T08:57:02;11.00;;;7.60;;
30420;SDS011;17218;54.070;10.012;2023-04-08T08:59:29;11.65;;;7.38;;
30420;SDS011;17218;54.070;10.012;2023-04-08T09:01:55;8.48;;;7.22;;
30420;SDS011;17218;54.070;10.012;2023-04-08T09:04:22;10.70;;;7.60;;
30420;SDS011;17218;54.070;10.012;2023-04-08T09:06:49;9.88;;;7.22;;
30420;SDS011;17218;54.070;10.012;2023-04-08T09:09:42;10.07;;;6.85;;
30420;SDS011;17218;54.070;10.012;2023-04-08T09:12:13;9.55;;;7.50;;
30420;SDS011;17218;54.070;10.012;2023-04-08T09:14:40;9.95;;;6.57;;
30420;SDS011;17218;54.070;10.012;2023-04-08T09:17:06;8.57;;;6.43;;
30420;SDS011;17218;54.070;10.012;2023-04-08T09:19:33;10.05;;;6.68;;
30420;SDS011;17218;54.070;10.012;2023-04-08T09:22:05;11.80;;;7.15;;
30420;SDS011;17218;54.070;10.012;2023-04-08T09:24:33;12.98;;;7.50;;
30420;SDS011;17218;54.070;10.012;2023-04-08T09:27:02;8.45;;;7.10;;
30420;SDS011;17218;54.070;10.012;2023-04-08T09:29:29;10.43;;;7.28;;
30420;SDS011;17218;54.070;10.012;2023-04-08T09:31:56;8.98;;;7.80;;
30420;SDS011;17218;54.070;10.012;2023-04-08T09:34:23;8.90;;;7.07;;
30420;SDS011;17218;54.070;10.012;2023-04-08T09:36:51;8.30;;;6.82;;
30420;SDS011;17218;54.070;10.012;2023-04-08T09:39:18;8.93;;;5.85;;
30420;SDS011;17218;54.070;10.012;2023-04-08T09:41:46;9.20;;;5.80;;
30420;SDS011;17218;54.070;10.012;2023-04-08T09:44:16;6.95;;;5.88;;
30420;SDS011;17218;54.070;10.012;2023-04-08T09:46:46;8.45;;;6.47;;
30420;SDS011;17218;54.070;10.012;2023-04-08T09:49:24;8.15;;;6.40;;
30420;SDS011;17218;54.070;10.012;2023-04-08T09:51:53;7.68;;;5.90;;
30420;SDS011;17218;54.070;10.012;2023-04-08T09:54:26;9.85;;;6.53;;
30420;SDS011;17218;54.070;10.012;2023-04-08T09:57:01;7.70;;;6.18;;
30420;SDS011;17218;54.070;10.012;2023-04-08T09:59:36;8.43;;;6.22;;
30420;SDS011;17218;54.070;10.012;2023-04-08T10:02:04;8.70;;;6.60;;
30420;SDS011;17218;54.070;10.012;2023-04-08T10:04:37;9.95;;;7.70;;
30420;SDS011;17218;54.070;10.012;2023-04-08T10:07:07;9.77;;;7.55;;
30420;SDS011;17218;54.070;10.012;2023-04-08T10:09:34;8.90;;;7.35;;
30420;SDS011;17218;54.070;10.012;2023-04-08T10:12:02;9.30;;;6.68;;
30420;SDS011;17218;54.070;10.012;2023-04-08T10:14:30;8.10;;;7.07;;
30420;SDS011;17218;54.070;10.012;2023-04-08T10:17:24;8.88;;;6.75;;
30420;SDS011;17218;54.070;10.012;2023-04-08T10:19:52;10.02;;;6.95;;
30420;SDS011;17218;54.070;10.012;2023-04-08T10:25:31;9.50;;;7.88;;
30420;SDS011;17218;54.070;10.012;2023-04-08T10:27:59;12.88;;;7.32;;
30420;SDS011;17218;54.070;10.012;2023-04-08T10:30:38;8.10;;;6.22;;
30420;SDS011;17218;54.070;10.012;2023-04-08T10:33:09;11.27;;;7.63;;
30420;SDS011;17218;54.070;10.012;2023-04-08T10:35:38;7.82;;;6.90;;
30420;SDS011;17218;54.070;10.012;2023-04-08T10:38:07;13.20;;;8.60;;
30420;SDS011;17218;54.070;10.012;2023-04-08T10:40:35;11.10;;;7.85;;
30420;SDS011;17218;54.070;10.012;2023-04-08T10:43:05;11.25;;;7.78;;
30420;SDS011;17218;54.070;10.012;2023-04-08T10:45:32;11.73;;;7.55;;
30420;SDS011;17218;54.070;10.012;2023-04-08T10:48:11;9.65;;;7.05;;
30420;SDS011;17218;54.070;10.012;2023-04-08T10:50:38;10.32;;;7.22;;
30420;SDS011;17218;54.070;10.012;2023-04-08T10:53:05;11.60;;;8.20;;
30420;SDS011;17218;54.070;10.012;2023-04-08T10:55:32;12.75;;;8.18;;
30420;SDS011;17218;54.070;10.012;2023-04-08T10:58:03;11.45;;;8.05;;
30420;SDS011;17218;54.070;10.012;2023-04-08T11:00:32;10.40;;;7.18;;
30420;SDS011;17218;54.070;10.012;2023-04-08T11:03:20;8.15;;;6.53;;
30420;SDS011;17218;54.070;10.012;2023-04-08T11:06:08;10.00;;;6.95;;
30420;SDS011;17218;54.070;10.012;2023-04-08T11:08:35;10.85;;;7.07;;
30420;SDS011;17218;54.070;10.012;2023-04-08T11:11:02;8.20;;;6.82;;
30420;SDS011;17218;54.070;10.012;2023-04-08T11:13:33;8.93;;;7.15;;
30420;SDS011;17218;54.070;10.012;2023-04-08T11:16:00;9.45;;;7.07;;
30420;SDS011;17218;54.070;10.012;2023-04-08T11:18:28;9.73;;;6.65;;
30420;SDS011;17218;54.070;10.012;2023-04-08T11:20:56;9.80;;;7.38;;
30420;SDS011;17218;54.070;10.012;2023-04-08T11:23:24;10.48;;;6.43;;
30420;SDS011;17218;54.070;10.012;2023-04-08T11:25:51;9.68;;;7.28;;
30420;SDS011;17218;54.070;10.012;2023-04-08T11:28:18;10.75;;;7.20;;
30420;SDS011;17218;54.070;10.012;2023-04-08T11:30:45;9.85;;;7.00;;
30420;SDS011;17218;54.070;10.012;2023-04-08T11:33:13;10.73;;;7.20;;
30420;SDS011;17218;54.070;10.012;2023-04-08T11:35:40;8.32;;;6.25;;
30420;SDS011;17218;54.070;10.012;2023-04-08T11:38:08;8.13;;;6.75;;
30420;SDS011;17218;54.070;10.012;2023-04-08T11:40:37;8.48;;;7.45;;
30420;SDS011;17218;54.070;10.012;2023-04-08T11:43:08;8.90;;;6.90;;
30420;SDS011;17218;54.070;10.012;2023-04-08T11:45:37;9.38;;;7.20;;
30420;SDS011;17218;54.070;10.012;2023-04-08T11:48:07;10.00;;;7.45;;
30420;SDS011;17218;54.070;10.012;2023-04-08T11:50:35;16.35;;;9.38;;
30420;SDS011;17218;54.070;10.012;2023-04-08T11:53:01;11.38;;;7.75;;
30420;SDS011;17218;54.070;10.012;2023-04-08T11:55:28;10.73;;;7.97;;
30420;SDS011;17218;54.070;10.012;2023-04-08T11:58:01;10.05;;;7.32;;
30420;SDS011;17218;54.070;10.012;2023-04-08T12:00:29;8.25;;;7.03;;
30420;SDS011;17218;54.070;10.012;2023-04-08T12:02:57;9.77;;;7.35;;
30420;SDS011;17218;54.070;10.012;2023-04-08T12:05:23;10.75;;;7.63;;
30420;SDS011;17218;54.070;10.012;2023-04-08T12:07:50;12.52;;;8.35;;
30420;SDS011;17218;54.070;10.012;2023-04-08T12:10:16;12.80;;;7.78;;
30420;SDS011;17218;54.070;10.012;2023-04-08T12:12:43;9.07;;;7.20;;
30420;SDS011;17218;54.070;10.012;2023-04-08T12:15:11;8.90;;;7.68;;
30420;SDS011;17218;54.070;10.012;2023-04-08T12:17:37;11.55;;;7.57;;
30420;SDS011;17218;54.070;10.012;2023-04-08T12:20:04;9.88;;;8.45;;
30420;SDS011;17218;54.070;10.012;2023-04-08T12:22:31;13.77;;;7.88;;
30420;SDS011;17218;54.070;10.012;2023-04-08T12:24:58;8.55;;;7.65;;
30420;SDS011;17218;54.070;10.012;2023-04-08T12:27:26;9.07;;;7.32;;
30420;SDS011;17218;54.070;10.012;2023-04-08T12:29:53;10.25;;;7.90;;
30420;SDS011;17218;54.070;10.012;2023-04-08T12:32:21;12.60;;;7.60;;
30420;SDS011;17218;54.070;10.012;2023-04-08T12:34:49;13.13;;;8.75;;
30420;SDS011;17218;54.070;10.012;2023-04-08T12:37:15;11.68;;;7.30;;
30420;SDS011;17218;54.070;10.012;2023-04-08T12:39:42;10.38;;;7.72;;
30420;SDS011;17218;54.070;10.012;2023-04-08T12:42:08;11.90;;;7.97;;
30420;SDS011;17218;54.070;10.012;2023-04-08T12:44:35;10.52;;;7.53;;
30420;SDS011;17218;54.070;10.012;2023-04-08T12:47:01;17.25;;;8.63;;
30420;SDS011;17218;54.070;10.012;2023-04-08T12:49:29;12.98;;;8.45;;
30420;SDS011;17218;54.070;10.012;2023-04-08T12:51:55;10.27;;;8.05;;
30420;SDS011;17218;54.070;10.012;2023-04-08T12:54:22;12.15;;;8.75;;
30420;SDS011;17218;54.070;10.012;2023-04-08T12:56:48;10.98;;;8.88;;
30420;SDS011;17218;54.070;10.012;2023-04-08T12:59:15;9.57;;;8.57;;
30420;SDS011;17218;54.070;10.012;2023-04-08T13:01:41;15.95;;;9.18;;
30420;SDS011;17218;54.070;10.012;2023-04-08T13:07:20;9.98;;;8.10;;
30420;SDS011;17218;54.070;10.012;2023-04-08T13:09:47;12.60;;;9.77;;
30420;SDS011;17218;54.070;10.012;2023-04-08T13:12:14;15.63;;;9.40;;
30420;SDS011;17218;54.070;10.012;2023-04-08T13:14:41;12.45;;;8.82;;
30420;SDS011;17218;54.070;10.012;2023-04-08T13:17:07;10.68;;;8.55;;
30420;SDS011;17218;54.070;10.012;2023-04-08T13:19:34;12.43;;;9.45;;
30420;SDS011;17218;54.070;10.012;2023-04-08T13:22:00;14.48;;;8.95;;
30420;SDS011;17218;54.070;10.012;2023-04-08T13:24:28;10.52;;;8.40;;
30420;SDS011;17218;54.070;10.012;2023-04-08T13:26:54;10.40;;;8.18;;
30420;SDS011;17218;54.070;10.012;2023-04-08T13:29:21;11.20;;;9.00;;
30420;SDS011;17218;54.070;10.012;2023-04-08T13:31:48;10.18;;;9.05;;
30420;SDS011;17218;54.070;10.012;2023-04-08T13:34:15;12.77;;;8.77;;
30420;SDS011;17218;54.070;10.012;2023-04-08T13:36:41;11.90;;;8.45;;
30420;SDS011;17218;54.070;10.012;2023-04-08T13:39:08;12.20;;;9.35;;
30420;SDS011;17218;54.070;10.012;2023-04-08T13:41:36;9.32;;;8.15;;
30420;SDS011;17218;54.070;10.012;2023-04-08T13:44:02;9.45;;;7.88;;
30420;SDS011;17218;54.070;10.012;2023-04-08T13:46:29;13.18;;;8.35;;
30420;SDS011;17218;54.070;10.012;2023-04-08T13:48:56;12.27;;;8.60;;
30420;SDS011;17218;54.070;10.012;2023-04-08T13:51:22;11.45;;;8.13;;
30420;SDS011;17218;54.070;10.012;2023-04-08T13:53:49;10.43;;;8.13;;
30420;SDS011;17218;54.070;10.012;2023-04-08T13:56:16;10.90;;;8.40;;
30420;SDS011;17218;54.070;10.012;2023-04-08T13:58:43;10.52;;;9.10;;
30420;SDS011;17218;54.070;10.012;2023-04-08T14:01:10;11.73;;;9.15;;
30420;SDS011;17218;54.070;10.012;2023-04-08T14:03:37;9.65;;;8.63;;
30420;SDS011;17218;54.070;10.012;2023-04-08T14:06:04;12.63;;;8.43;;
30420;SDS011;17218;54.070;10.012;2023-04-08T14:08:30;13.30;;;8.95;;
30420;SDS011;17218;54.070;10.012;2023-04-08T14:10:57;10.27;;;8.57;;
30420;SDS011;17218;54.070;10.012;2023-04-08T14:13:23;14.07;;;8.48;;
30420;SDS011;17218;54.070;10.012;2023-04-08T14:15:57;11.15;;;8.82;;
30420;SDS011;17218;54.070;10.012;2023-04-08T14:18:26;10.57;;;8.32;;
30420;SDS011;17218;54.070;10.012;2023-04-08T14:20:53;10.65;;;8.50;;
30420;SDS011;17218;54.070;10.012;2023-04-08T14:23:20;10.35;;;8.13;;
30420;SDS011;17218;54.070;10.012;2023-04-08T14:25:46;10.45;;;7.90;;
30420;SDS011;17218;54.070;10.012;2023-04-08T14:28:13;11.23;;;8.45;;
30420;SDS011;17218;54.070;10.012;2023-04-08T14:30:39;11.60;;;8.35;;
30420;SDS011;17218;54.070;10.012;2023-04-08T14:33:08;10.05;;;8.40;;
30420;SDS011;17218;54.070;10.012;2023-04-08T14:35:34;10.15;;;8.10;;
30420;SDS011;17218;54.070;10.012;2023-04-08T14:38:01;8.73;;;7.82;;
30420;SDS011;17218;54.070;10.012;2023-04-08T14:40:27;8.95;;;7.60;;
30420;SDS011;17218;54.070;10.012;2023-04-08T14:42:53;8.90;;;6.97;;
30420;SDS011;17218;54.070;10.012;2023-04-08T14:45:20;9.95;;;8.23;;
30420;SDS011;17218;54.070;10.012;2023-04-08T14:47:46;8.93;;;8.13;;